Time;durP1;ratioP1;P1;durP2;ratioP2;P2;SDS_P1;SDS_P2;PMS_P1;PMS_P2;Temp;Humidity;BMP_temperature;BMP_pressure;BME280_temperature;BME280_humidity;BME280_pressure;Samples;Min_cycle;Max_cycle;Signal;HPM_P1;HPM_P2
2023/10/31 00:00:34;;;;;;;0.90;0.60;;;15.60;91.70;;;;;;5081565;28;20148;-83
2023/10/31 00:02:59;;;;;;;0.70;0.50;;;15.60;91.70;;;;;;5099438;28;20020;-83
2023/10/31 00:05:24;;;;;;;1.00;0.60;;;15.60;91.70;;;;;;5081141;28;20020;-83
2023/10/31 00:07:50;;;;;;;1.08;0.60;;;15.50;91.70;;;;;;5080793;28;20039;-83
2023/10/31 00:10:16;;;;;;;1.30;0.80;;;15.50;91.70;;;;;;5080747;28;20031;-83
2023/10/31 00:12:41;;;;;;;0.70;0.52;;;15.50;91.80;;;;;;5099114;28;20110;-83
2023/10/31 00:15:07;;;;;;;0.73;0.55;;;15.50;91.80;;;;;;5079692;28;20024;-83
2023/10/31 00:17:32;;;;;;;0.77;0.63;;;15.50;91.80;;;;;;5079668;28;20066;-83
2023/10/31 00:19:58;;;;;;;1.55;0.70;;;15.50;91.90;;;;;;5102359;28;20024;-83
2023/10/31 00:22:24;;;;;;;0.50;0.50;;;15.50;91.90;;;;;;5086832;28;20114;-83
2023/10/31 00:24:49;;;;;;;0.80;0.70;;;15.50;91.90;;;;;;5104063;28;20153;-83
2023/10/31 00:27:15;;;;;;;1.63;0.80;;;15.40;91.90;;;;;;5103810;28;20028;-83
2023/10/31 00:29:40;;;;;;;1.10;0.60;;;15.50;92.00;;;;;;5085341;28;20045;-83
2023/10/31 00:32:06;;;;;;;1.00;0.63;;;15.40;91.90;;;;;;5084475;28;20050;-83
2023/10/31 00:34:32;;;;;;;0.95;0.68;;;15.40;92.00;;;;;;5084680;28;20028;-83
2023/10/31 00:36:57;;;;;;;0.95;0.60;;;15.40;92.00;;;;;;5084121;28;20020;-83
2023/10/31 00:39:22;;;;;;;0.75;0.70;;;15.40;92.00;;;;;;5102670;28;20509;-83
2023/10/31 00:41:48;;;;;;;1.08;0.68;;;15.50;92.00;;;;;;5084633;28;20020;-83
2023/10/31 00:44:14;;;;;;;1.20;0.80;;;15.40;92.00;;;;;;5102257;28;20016;-83
2023/10/31 00:46:39;;;;;;;1.23;0.70;;;15.40;92.00;;;;;;5102106;28;20030;-83
2023/10/31 00:49:05;;;;;;;1.13;0.70;;;15.50;92.00;;;;;;5101644;28;20039;-83
2023/10/31 00:51:30;;;;;;;0.95;0.70;;;15.40;92.00;;;;;;5083104;28;20098;-83
2023/10/31 00:53:56;;;;;;;1.33;0.60;;;15.40;92.00;;;;;;5082788;28;20482;-82
2023/10/31 00:56:21;;;;;;;1.13;0.50;;;15.40;92.00;;;;;;5082623;28;20044;-83
2023/10/31 00:58:47;;;;;;;1.33;0.80;;;15.40;92.00;;;;;;5082213;28;20024;-83
2023/10/31 01:01:13;;;;;;;0.85;0.60;;;15.40;92.00;;;;;;5100359;28;20107;-83
2023/10/31 01:03:39;;;;;;;1.45;0.93;;;15.50;91.90;;;;;;5100749;28;20028;-82
2023/10/31 01:06:05;;;;;;;1.20;0.90;;;15.50;91.90;;;;;;5081346;28;20031;-82
2023/10/31 01:08:31;;;;;;;1.10;0.80;;;15.50;91.80;;;;;;5081161;28;20031;-82
2023/10/31 01:10:56;;;;;;;1.30;0.80;;;15.50;91.80;;;;;;5081184;28;20069;-83
2023/10/31 01:13:22;;;;;;;1.08;0.68;;;15.60;91.80;;;;;;5080889;28;20055;-82
2023/10/31 01:15:47;;;;;;;1.20;0.70;;;15.60;91.70;;;;;;5080834;28;20553;-83
2023/10/31 01:18:13;;;;;;;1.25;0.70;;;15.60;91.70;;;;;;5079968;28;20089;-83
2023/10/31 01:20:39;;;;;;;1.02;0.80;;;15.50;91.70;;;;;;5080717;28;20024;-83
2023/10/31 01:23:04;;;;;;;1.20;0.80;;;15.50;91.70;;;;;;5080346;28;20428;-83
2023/10/31 01:25:30;;;;;;;1.33;0.80;;;15.50;91.80;;;;;;5080479;28;20016;-81
2023/10/31 01:27:55;;;;;;;0.80;0.73;;;15.50;91.80;;;;;;5079662;28;20024;-83
2023/10/31 01:30:21;;;;;;;1.27;0.68;;;15.50;91.90;;;;;;5098102;28;20039;-83
2023/10/31 01:32:46;;;;;;;1.10;0.80;;;15.50;91.90;;;;;;5097783;28;20027;-83
2023/10/31 01:35:12;;;;;;;0.75;0.70;;;15.50;91.90;;;;;;5079714;28;20107;-83
2023/10/31 01:37:38;;;;;;;2.83;0.90;;;15.50;91.90;;;;;;5078543;28;20028;-83
2023/10/31 01:40:04;;;;;;;1.13;0.70;;;15.40;91.90;;;;;;5097983;28;20114;-82
2023/10/31 01:42:30;;;;;;;0.98;0.77;;;15.40;92.00;;;;;;5097348;28;20020;-82
2023/10/31 01:44:55;;;;;;;2.25;0.90;;;15.40;92.00;;;;;;5079611;28;20031;-83
2023/10/31 01:47:22;;;;;;;1.13;0.90;;;15.50;92.00;;;;;;5078299;28;20282;-83
2023/10/31 01:49:47;;;;;;;1.27;0.80;;;15.50;92.00;;;;;;5078990;28;20455;-83
2023/10/31 01:52:13;;;;;;;1.05;0.80;;;15.40;92.00;;;;;;5078202;28;20024;-83
2023/10/31 01:54:39;;;;;;;1.40;0.63;;;15.40;92.00;;;;;;5078686;28;20028;-83
2023/10/31 01:57:05;;;;;;;2.00;0.88;;;15.40;92.00;;;;;;5096542;28;20028;-82
2023/10/31 01:59:31;;;;;;;1.30;0.85;;;15.40;92.00;;;;;;5096943;28;20027;-83
2023/10/31 02:01:57;;;;;;;1.08;0.80;;;15.40;92.10;;;;;;5078087;28;20020;-83
2023/10/31 02:04:24;;;;;;;1.08;0.80;;;15.40;92.10;;;;;;5077341;28;20431;-82
2023/10/31 02:06:49;;;;;;;1.00;0.80;;;15.40;92.10;;;;;;5077790;28;20046;-82
2023/10/31 02:09:15;;;;;;;1.25;0.70;;;15.40;92.10;;;;;;5077355;28;20552;-82
2023/10/31 02:11:41;;;;;;;1.10;0.70;;;15.40;92.10;;;;;;5077587;28;20063;-81
2023/10/31 02:14:06;;;;;;;1.30;0.90;;;15.40;92.10;;;;;;5095766;28;20023;-82
2023/10/31 02:16:32;;;;;;;2.45;1.02;;;15.50;92.10;;;;;;5077420;28;20024;-82
2023/10/31 02:18:57;;;;;;;1.58;1.00;;;15.50;92.10;;;;;;5076818;28;20028;-82
2023/10/31 02:21:25;;;;;;;1.02;0.80;;;15.50;92.00;;;;;;5077144;28;20024;-82
2023/10/31 02:24:03;;;;;;;0.77;0.70;;;15.50;91.90;;;;;;5095636;28;20032;-82
2023/10/31 02:26:33;;;;;;;1.02;0.80;;;15.50;91.90;;;;;;5095106;28;20024;-83
2023/10/31 02:28:59;;;;;;;1.55;0.90;;;15.50;91.80;;;;;;5076464;28;20454;-81
2023/10/31 02:31:26;;;;;;;1.00;0.70;;;15.50;91.80;;;;;;5094854;28;20077;-83
2023/10/31 02:33:51;;;;;;;1.52;0.90;;;15.60;91.80;;;;;;5076228;28;20122;-82
2023/10/31 02:36:17;;;;;;;1.10;0.90;;;15.50;91.80;;;;;;5076328;28;20088;-82
2023/10/31 02:38:43;;;;;;;1.10;0.82;;;15.50;91.80;;;;;;5075799;28;20036;-82
2023/10/31 02:41:09;;;;;;;1.40;0.85;;;15.50;91.80;;;;;;5093328;28;20027;-82
2023/10/31 02:43:34;;;;;;;1.58;0.82;;;15.50;91.80;;;;;;5093771;28;20073;-82
2023/10/31 02:46:00;;;;;;;1.80;1.20;;;15.60;91.90;;;;;;5094316;28;20047;-83
2023/10/31 02:48:26;;;;;;;1.52;0.90;;;15.50;91.90;;;;;;5075350;28;20103;-82
2023/10/31 02:50:52;;;;;;;1.30;1.10;;;15.40;91.90;;;;;;5094230;28;20061;-82
2023/10/31 02:53:18;;;;;;;1.60;1.00;;;15.40;91.90;;;;;;5093924;28;20028;-81
2023/10/31 02:55:44;;;;;;;1.02;0.90;;;15.40;91.90;;;;;;5075467;28;20020;-82
2023/10/31 02:58:10;;;;;;;2.28;1.00;;;15.40;92.00;;;;;;5075151;28;20081;-82
2023/10/31 03:00:36;;;;;;;1.15;0.90;;;15.40;92.00;;;;;;5093613;28;20021;-81
2023/10/31 03:03:01;;;;;;;1.55;0.85;;;15.40;92.00;;;;;;5075406;28;20024;-82
2023/10/31 03:05:27;;;;;;;1.45;1.00;;;15.40;92.00;;;;;;5075544;28;20796;-82
2023/10/31 03:07:53;;;;;;;1.58;1.10;;;15.40;92.00;;;;;;5075103;28;20509;-82
2023/10/31 03:10:20;;;;;;;1.45;1.08;;;15.40;92.00;;;;;;5075073;28;20039;-82
2023/10/31 03:12:45;;;;;;;2.05;1.00;;;15.40;92.00;;;;;;5093402;28;20024;-82
2023/10/31 03:15:11;;;;;;;1.40;1.02;;;15.40;92.00;;;;;;5075023;28;20028;-82
2023/10/31 03:17:37;;;;;;;1.45;1.05;;;15.40;92.10;;;;;;5077643;28;20024;-83
2023/10/31 03:20:03;;;;;;;1.50;0.90;;;15.40;92.10;;;;;;5082324;28;20027;-83
2023/10/31 03:22:28;;;;;;;1.05;0.90;;;15.40;92.00;;;;;;5082835;28;20081;-83
2023/10/31 03:24:54;;;;;;;1.77;0.90;;;15.40;92.10;;;;;;5100310;28;20032;-83
2023/10/31 03:27:19;;;;;;;1.25;0.80;;;15.40;92.10;;;;;;5081665;28;20046;-83
2023/10/31 03:29:45;;;;;;;1.20;0.90;;;15.40;92.10;;;;;;5081422;28;20042;-83
2023/10/31 03:32:12;;;;;;;1.45;0.80;;;15.40;92.10;;;;;;5081840;28;20024;-83
2023/10/31 03:34:37;;;;;;;1.70;1.00;;;15.40;92.10;;;;;;5081671;28;20024;-83
2023/10/31 03:37:04;;;;;;;1.13;0.70;;;15.40;92.00;;;;;;5080807;28;20615;-82
2023/10/31 03:39:29;;;;;;;1.30;0.70;;;15.50;91.90;;;;;;5080826;28;20035;-83
2023/10/31 03:41:55;;;;;;;1.02;0.80;;;15.50;91.90;;;;;;5098648;28;20019;-82
2023/10/31 03:44:20;;;;;;;1.00;0.77;;;15.50;91.80;;;;;;5077978;28;20020;-83
2023/10/31 03:46:46;;;;;;;2.78;1.10;;;15.50;91.80;;;;;;5080989;28;20496;-83
2023/10/31 03:49:11;;;;;;;1.40;0.80;;;15.50;91.80;;;;;;5082282;28;20032;-83
2023/10/31 03:51:37;;;;;;;1.05;0.73;;;15.50;91.80;;;;;;5082069;28;20099;-83
2023/10/31 03:54:03;;;;;;;0.90;0.80;;;15.50;91.80;;;;;;5081686;28;20027;-83
2023/10/31 03:56:28;;;;;;;0.93;0.80;;;15.50;91.80;;;;;;5081368;28;20028;-83
2023/10/31 03:58:53;;;;;;;1.23;0.95;;;15.50;91.90;;;;;;5081611;28;20403;-83
2023/10/31 04:01:19;;;;;;;0.85;0.80;;;15.50;91.90;;;;;;5099347;28;20028;-83
2023/10/31 04:03:44;;;;;;;1.08;0.70;;;15.40;91.90;;;;;;5098664;28;20452;-83
2023/10/31 04:06:10;;;;;;;1.83;0.80;;;15.50;92.00;;;;;;5080758;28;20050;-83
2023/10/31 04:08:35;;;;;;;1.23;0.77;;;15.40;92.00;;;;;;5098458;28;20020;-83
2023/10/31 04:11:01;;;;;;;1.42;0.95;;;15.40;92.00;;;;;;5080316;28;20517;-83
2023/10/31 04:13:26;;;;;;;1.33;0.80;;;15.40;92.00;;;;;;5080080;28;20035;-83
2023/10/31 04:15:52;;;;;;;1.60;0.80;;;15.40;92.00;;;;;;5079354;28;20032;-83
2023/10/31 04:18:18;;;;;;;1.00;0.80;;;15.40;92.10;;;;;;5097339;28;20031;-83
2023/10/31 04:20:44;;;;;;;0.60;0.52;;;15.40;92.10;;;;;;5097490;28;20016;-82
2023/10/31 04:23:11;;;;;;;0.80;0.63;;;15.40;92.10;;;;;;5075404;28;20070;-82
2023/10/31 04:25:37;;;;;;;1.40;0.70;;;15.40;92.10;;;;;;5073818;28;20027;-82
2023/10/31 04:28:02;;;;;;;1.95;0.75;;;15.40;92.10;;;;;;5072220;28;20024;-82
2023/10/31 04:30:28;;;;;;;0.80;0.70;;;15.40;92.10;;;;;;5075341;28;20477;-82
2023/10/31 04:32:54;;;;;;;0.70;0.63;;;15.40;92.10;;;;;;5074734;28;20493;-82
2023/10/31 04:35:19;;;;;;;0.98;0.70;;;15.40;92.10;;;;;;5074833;28;20035;-83
2023/10/31 04:37:45;;;;;;;0.70;0.70;;;15.40;92.10;;;;;;5073895;28;20079;-82
2023/10/31 04:40:11;;;;;;;1.10;0.82;;;15.40;92.10;;;;;;5074830;28;20020;-83
2023/10/31 04:42:38;;;;;;;1.00;0.60;;;15.40;92.10;;;;;;5092637;28;20081;-81
2023/10/31 04:45:04;;;;;;;0.63;0.60;;;15.40;92.10;;;;;;5074340;28;20020;-83
2023/10/31 04:47:30;;;;;;;0.60;0.60;;;15.40;92.10;;;;;;5092452;28;20024;-83
2023/10/31 04:49:56;;;;;;;1.05;0.60;;;15.40;92.10;;;;;;5074669;28;20028;-82
2023/10/31 04:52:22;;;;;;;0.90;0.70;;;15.40;92.10;;;;;;5069593;28;20282;-83
2023/10/31 04:54:48;;;;;;;1.23;0.70;;;15.40;92.00;;;;;;5052938;28;20025;-83
2023/10/31 04:57:13;;;;;;;0.85;0.60;;;15.50;91.90;;;;;;5055228;28;20039;-82
2023/10/31 04:59:39;;;;;;;0.65;0.65;;;15.50;91.90;;;;;;5074265;28;20378;-82
2023/10/31 05:02:04;;;;;;;1.13;0.70;;;15.50;91.80;;;;;;5091025;28;20030;-82
2023/10/31 05:04:30;;;;;;;1.17;0.60;;;15.50;91.80;;;;;;5075793;28;20020;-81
2023/10/31 05:06:56;;;;;;;0.73;0.60;;;15.50;91.80;;;;;;5078027;28;20027;-83
2023/10/31 05:09:23;;;;;;;0.98;0.63;;;15.50;91.80;;;;;;5094995;28;20028;-82
2023/10/31 05:11:48;;;;;;;0.82;0.60;;;15.50;91.80;;;;;;5075863;28;20027;-81
2023/10/31 05:14:14;;;;;;;1.20;0.70;;;15.50;91.90;;;;;;5074708;28;20039;-83
2023/10/31 05:16:43;;;;;;;0.80;0.80;;;15.50;91.90;;;;;;5076182;28;20986;-80
2023/10/31 05:19:10;;;;;;;1.00;0.70;;;15.50;91.90;;;;;;5075428;28;20059;-83
2023/10/31 05:21:35;;;;;;;1.27;0.73;;;15.40;91.90;;;;;;5092717;28;20020;-82
2023/10/31 05:24:01;;;;;;;0.68;0.50;;;15.50;92.00;;;;;;5093544;28;20192;-84
2023/10/31 05:26:29;;;;;;;1.33;0.75;;;15.40;92.00;;;;;;5075116;28;20077;-83
2023/10/31 05:28:55;;;;;;;1.08;0.70;;;15.40;92.00;;;;;;5075976;28;20119;-83
2023/10/31 05:31:20;;;;;;;1.15;0.60;;;15.40;92.00;;;;;;5075787;28;20111;-83
2023/10/31 05:33:46;;;;;;;0.70;0.70;;;15.40;92.00;;;;;;5075986;28;20016;-84
2023/10/31 05:36:19;;;;;;;1.55;0.75;;;15.40;92.00;;;;;;5076065;28;20028;-83
2023/10/31 05:38:44;;;;;;;1.80;0.73;;;15.40;92.00;;;;;;5076049;28;20035;-83
2023/10/31 05:41:10;;;;;;;1.13;0.80;;;15.40;92.10;;;;;;5076044;28;20017;-83
2023/10/31 05:43:35;;;;;;;1.77;0.90;;;15.30;92.10;;;;;;5073862;28;20039;-83
2023/10/31 05:46:01;;;;;;;1.00;0.70;;;15.40;92.10;;;;;;5075466;28;20012;-82
2023/10/31 05:48:26;;;;;;;1.10;0.88;;;15.40;92.10;;;;;;5075459;28;20474;-83
2023/10/31 05:50:52;;;;;;;0.88;0.77;;;15.40;92.10;;;;;;5091597;28;20086;-83
2023/10/31 05:53:17;;;;;;;1.20;0.90;;;15.40;92.10;;;;;;5086794;28;20035;-83
2023/10/31 05:55:43;;;;;;;1.38;0.90;;;15.40;92.10;;;;;;5059754;28;20100;-84
2023/10/31 05:58:08;;;;;;;1.88;0.82;;;15.40;92.10;;;;;;5075298;28;20031;-83
2023/10/31 06:00:35;;;;;;;1.45;0.80;;;15.40;92.10;;;;;;5075986;28;20401;-82
2023/10/31 06:03:00;;;;;;;0.85;0.70;;;15.40;92.10;;;;;;5075810;28;20020;-83
2023/10/31 06:05:25;;;;;;;0.63;0.60;;;15.40;92.10;;;;;;5093827;28;20039;-82
2023/10/31 06:07:51;;;;;;;1.25;0.80;;;15.40;92.10;;;;;;5094757;28;20508;-83
2023/10/31 06:10:17;;;;;;;1.08;0.85;;;15.40;92.00;;;;;;5077126;28;20047;-83
2023/10/31 06:12:42;;;;;;;1.10;0.70;;;15.40;92.00;;;;;;5076274;28;20482;-82
2023/10/31 06:15:08;;;;;;;0.73;0.65;;;15.40;91.90;;;;;;5077178;28;20028;-81
2023/10/31 06:17:34;;;;;;;1.33;0.65;;;15.50;91.90;;;;;;5094916;28;20106;-82
2023/10/31 06:20:00;;;;;;;1.02;0.70;;;15.50;91.80;;;;;;5075587;28;20486;-83
2023/10/31 06:22:26;;;;;;;0.70;0.70;;;15.50;91.80;;;;;;5093491;28;20031;-82
2023/10/31 06:24:51;;;;;;;1.60;0.90;;;15.50;91.80;;;;;;5074332;28;20028;-80
2023/10/31 06:27:17;;;;;;;2.33;1.20;;;15.50;91.70;;;;;;5080090;28;20374;-81
2023/10/31 06:29:42;;;;;;;1.42;0.82;;;15.50;91.80;;;;;;5078830;28;20028;-81
2023/10/31 06:32:08;;;;;;;2.08;0.90;;;15.50;91.80;;;;;;5076174;28;20025;-82
2023/10/31 06:34:33;;;;;;;3.65;1.00;;;15.50;91.80;;;;;;5076189;28;20398;-83
2023/10/31 06:36:59;;;;;;;1.40;0.80;;;15.40;92.10;;;;;;5114792;22;20129;-76
2023/10/31 06:39:24;;;;;;;2.05;1.00;;;15.40;91.90;;;;;;5052276;28;20021;-76
2023/10/31 06:41:54;;;;;;;2.58;1.00;;;15.40;91.90;;;;;;5055183;28;20052;-76
2023/10/31 06:44:19;;;;;;;1.75;0.98;;;15.40;91.90;;;;;;5054914;28;20031;-76
2023/10/31 06:46:45;;;;;;;1.70;1.00;;;15.40;91.90;;;;;;5052257;28;20111;-76
2023/10/31 06:49:10;;;;;;;1.85;0.90;;;15.40;92.00;;;;;;5034939;28;20028;-76
2023/10/31 06:51:36;;;;;;;2.55;1.02;;;15.50;92.00;;;;;;5026301;28;20532;-76
2023/10/31 06:54:01;;;;;;;1.90;1.00;;;15.40;92.00;;;;;;5034947;28;20025;-76
2023/10/31 06:56:28;;;;;;;3.45;1.38;;;15.40;92.00;;;;;;5035241;28;20025;-77
2023/10/31 06:58:54;;;;;;;2.33;1.10;;;15.40;92.10;;;;;;5053321;28;20017;-76
2023/10/31 07:01:20;;;;;;;2.08;1.02;;;15.40;92.10;;;;;;5053488;28;20036;-76
2023/10/31 07:03:46;;;;;;;2.28;1.10;;;15.40;92.10;;;;;;5053805;28;20021;-76
2023/10/31 07:06:11;;;;;;;1.92;1.00;;;15.40;92.10;;;;;;5035787;28;20063;-76
2023/10/31 07:08:37;;;;;;;1.77;1.10;;;15.40;92.10;;;;;;5053124;28;20028;-76
2023/10/31 07:11:02;;;;;;;1.23;0.90;;;15.40;92.10;;;;;;5045305;28;20055;-76
2023/10/31 07:13:28;;;;;;;1.45;1.00;;;15.40;92.10;;;;;;5035709;28;20170;-76
2023/10/31 07:15:53;;;;;;;1.83;0.80;;;15.40;92.10;;;;;;5035811;28;20070;-76
2023/10/31 07:18:19;;;;;;;1.92;1.05;;;15.40;92.10;;;;;;5035495;28;20112;-76
2023/10/31 07:20:45;;;;;;;3.03;1.20;;;15.40;92.10;;;;;;5053487;28;20414;-75
2023/10/31 07:23:11;;;;;;;1.40;0.95;;;15.40;92.10;;;;;;5035593;28;20029;-76
2023/10/31 07:25:36;;;;;;;1.30;0.90;;;15.40;92.10;;;;;;5035784;28;20025;-76
2023/10/31 07:28:02;;;;;;;2.15;0.90;;;15.40;92.10;;;;;;5053389;28;20498;-76
2023/10/31 07:30:27;;;;;;;1.58;0.90;;;15.40;92.00;;;;;;5035676;28;20025;-76
2023/10/31 07:32:53;;;;;;;1.35;0.90;;;15.40;92.00;;;;;;5035692;28;20025;-76
2023/10/31 07:35:19;;;;;;;2.70;0.90;;;15.50;91.90;;;;;;5053469;28;20386;-76
2023/10/31 07:37:45;;;;;;;1.55;0.90;;;15.50;91.90;;;;;;5052883;28;20487;-75
2023/10/31 07:40:11;;;;;;;1.00;0.80;;;15.50;91.90;;;;;;5035572;28;20032;-75
2023/10/31 07:42:37;;;;;;;1.92;0.90;;;15.50;91.80;;;;;;5035201;28;20024;-77
2023/10/31 07:45:02;;;;;;;1.88;0.80;;;15.50;91.80;;;;;;5024238;28;20021;-76
2023/10/31 07:47:28;;;;;;;1.35;0.90;;;15.50;91.80;;;;;;5032924;28;20056;-76
2023/10/31 07:49:53;;;;;;;1.58;0.80;;;15.50;91.80;;;;;;5033449;28;20025;-76
2023/10/31 07:52:19;;;;;;;1.77;1.00;;;15.50;91.90;;;;;;5015421;28;20032;-76
2023/10/31 07:54:44;;;;;;;2.35;0.80;;;15.50;91.90;;;;;;5015476;28;20026;-76
2023/10/31 07:57:10;;;;;;;1.20;0.90;;;15.40;91.90;;;;;;5032933;28;20438;-76
2023/10/31 07:59:36;;;;;;;1.40;0.82;;;15.40;91.90;;;;;;5033099;28;20022;-76
2023/10/31 08:02:02;;;;;;;1.13;0.80;;;15.50;92.00;;;;;;5015735;28;20658;-77
2023/10/31 08:04:29;;;;;;;2.30;0.75;;;15.50;91.90;;;;;;5015944;28;20026;-76
2023/10/31 08:06:55;;;;;;;1.77;0.90;;;15.50;92.00;;;;;;5015098;28;20384;-77
2023/10/31 08:09:20;;;;;;;1.75;0.70;;;15.50;92.00;;;;;;5015119;28;20087;-77
2023/10/31 08:11:46;;;;;;;1.33;0.77;;;15.50;91.90;;;;;;5015886;28;20021;-76
2023/10/31 08:14:11;;;;;;;1.35;0.80;;;15.50;91.90;;;;;;5015414;28;20036;-76
2023/10/31 08:16:37;;;;;;;1.48;0.70;;;15.50;91.80;;;;;;5032843;28;20022;-76
2023/10/31 08:19:02;;;;;;;0.85;0.70;;;15.50;91.80;;;;;;5032968;28;20026;-77
2023/10/31 08:21:33;;;;;;;0.77;0.65;;;15.60;91.80;;;;;;5017190;28;20057;-77
2023/10/31 08:24:02;;;;;;;1.75;0.80;;;15.60;91.80;;;;;;5024283;28;20051;-76
2023/10/31 08:26:27;;;;;;;1.33;0.80;;;15.60;91.80;;;;;;5014866;28;20026;-76
2023/10/31 08:28:53;;;;;;;0.70;0.70;;;15.60;91.70;;;;;;5032327;28;20049;-77
2023/10/31 08:31:19;;;;;;;1.23;0.73;;;15.70;91.60;;;;;;5015220;28;20100;-76
2023/10/31 08:33:45;;;;;;;2.25;0.77;;;15.70;91.70;;;;;;5032792;28;20025;-77
2023/10/31 08:36:10;;;;;;;0.80;0.60;;;15.70;91.70;;;;;;5032587;28;20380;-76
2023/10/31 08:38:36;;;;;;;1.40;0.60;;;15.70;91.70;;;;;;5014695;28;20026;-77
2023/10/31 08:41:01;;;;;;;1.83;0.85;;;15.60;91.70;;;;;;5018643;28;20104;-76
2023/10/31 08:43:27;;;;;;;0.68;0.60;;;15.70;91.70;;;;;;5018923;28;20052;-76
2023/10/31 08:45:52;;;;;;;0.80;0.60;;;15.70;91.70;;;;;;5018843;28;20021;-76
2023/10/31 08:48:18;;;;;;;0.55;0.55;;;15.70;91.70;;;;;;5018584;28;20025;-76
2023/10/31 08:50:43;;;;;;;0.70;0.70;;;15.70;91.60;;;;;;5018723;28;20025;-76
2023/10/31 08:53:09;;;;;;;0.93;0.68;;;15.70;91.50;;;;;;5018707;28;20025;-77
2023/10/31 08:55:35;;;;;;;1.52;0.60;;;15.70;91.50;;;;;;5036375;28;20033;-76
2023/10/31 08:58:00;;;;;;;1.10;0.70;;;15.70;91.40;;;;;;5018183;28;20029;-76
2023/10/31 09:00:28;;;;;;;0.95;0.63;;;15.70;91.40;;;;;;5018625;28;20025;-77
2023/10/31 09:02:53;;;;;;;1.20;0.70;;;15.70;91.50;;;;;;5018180;28;20025;-77
2023/10/31 09:05:19;;;;;;;0.57;0.52;;;15.70;91.50;;;;;;5018381;28;20719;-77
2023/10/31 09:07:45;;;;;;;0.82;0.50;;;15.70;91.50;;;;;;5035874;28;20029;-76
2023/10/31 09:10:12;;;;;;;0.90;0.60;;;15.70;91.60;;;;;;5018335;28;20029;-77
2023/10/31 09:12:37;;;;;;;0.73;0.55;;;15.70;91.60;;;;;;5035899;28;20399;-77
2023/10/31 09:15:03;;;;;;;0.50;0.50;;;15.70;91.90;;;;;;5018331;28;20021;-77
2023/10/31 09:17:29;;;;;;;0.55;0.55;;;15.60;91.70;;;;;;5017694;28;20510;-77
2023/10/31 09:19:55;;;;;;;0.73;0.50;;;15.60;91.70;;;;;;5018390;28;20029;-77
2023/10/31 09:22:20;;;;;;;0.80;0.65;;;15.60;91.80;;;;;;5018387;28;20026;-77
2023/10/31 09:24:46;;;;;;;1.02;0.68;;;15.60;91.80;;;;;;5018049;28;20117;-77
2023/10/31 09:27:11;;;;;;;0.93;0.60;;;15.60;91.80;;;;;;5017476;28;20480;-76
2023/10/31 09:29:37;;;;;;;0.60;0.60;;;15.60;91.80;;;;;;5017973;28;20021;-76
2023/10/31 09:32:05;;;;;;;0.88;0.50;;;15.60;91.80;;;;;;5035688;28;20574;-77
2023/10/31 09:34:30;;;;;;;0.88;0.63;;;15.60;91.80;;;;;;5035492;28;20100;-76
2023/10/31 09:36:56;;;;;;;1.48;0.70;;;15.60;91.80;;;;;;5035153;28;20037;-77
2023/10/31 09:39:22;;;;;;;0.60;0.60;;;15.60;91.90;;;;;;5017915;28;20028;-76
2023/10/31 09:41:48;;;;;;;1.00;0.70;;;15.60;91.90;;;;;;5017512;28;20060;-77
2023/10/31 09:44:14;;;;;;;0.95;0.68;;;15.60;91.90;;;;;;5017811;28;20049;-76
2023/10/31 09:46:40;;;;;;;0.70;0.50;;;15.60;91.90;;;;;;5035306;28;20037;-77
2023/10/31 09:49:07;;;;;;;0.60;0.60;;;15.60;91.90;;;;;;5035254;28;20471;-76
2023/10/31 09:51:32;;;;;;;0.40;0.40;;;15.60;91.80;;;;;;5034444;28;20033;-75
2023/10/31 09:54:01;;;;;;;0.60;0.60;;;15.60;91.80;;;;;;5035487;28;20026;-76
2023/10/31 09:56:34;;;;;;;0.77;0.50;;;15.60;91.90;;;;;;5017442;28;20021;-76
2023/10/31 09:59:04;;;;;;;0.98;0.75;;;15.60;91.90;;;;;;5035125;28;20026;-76
2023/10/31 10:01:30;;;;;;;1.05;0.50;;;15.60;91.90;;;;;;5017516;28;20028;-76
2023/10/31 10:03:56;;;;;;;0.82;0.60;;;15.60;91.80;;;;;;5017290;28;20034;-76
2023/10/31 10:06:23;;;;;;;0.60;0.50;;;15.60;91.80;;;;;;5017202;28;20105;-76
2023/10/31 10:08:49;;;;;;;0.52;0.50;;;15.60;91.70;;;;;;5034632;28;20041;-76
2023/10/31 10:11:15;;;;;;;0.82;0.63;;;15.60;91.70;;;;;;5017327;28;20053;-76
2023/10/31 10:13:40;;;;;;;0.65;0.50;;;15.60;91.70;;;;;;5017256;28;20509;-76
2023/10/31 10:16:06;;;;;;;1.10;0.60;;;15.60;91.60;;;;;;5017252;28;20036;-77
2023/10/31 10:18:40;;;;;;;0.60;0.50;;;15.70;91.60;;;;;;5016607;28;20530;-76
2023/10/31 10:21:07;;;;;;;0.90;0.60;;;15.60;91.60;;;;;;5017265;28;20025;-76
2023/10/31 10:23:33;;;;;;;1.77;0.68;;;15.70;91.70;;;;;;5017378;28;20028;-76
2023/10/31 10:26:00;;;;;;;1.95;0.50;;;15.60;91.70;;;;;;5034429;28;20017;-76
2023/10/31 10:28:26;;;;;;;0.63;0.60;;;15.60;91.70;;;;;;5016802;28;20029;-76
2023/10/31 10:30:53;;;;;;;1.50;0.60;;;15.60;91.80;;;;;;5017330;28;20037;-76
2023/10/31 10:33:20;;;;;;;0.80;0.60;;;15.60;91.80;;;;;;5016754;28;20030;-76
2023/10/31 10:35:45;;;;;;;0.85;0.60;;;15.60;91.90;;;;;;5016775;28;20098;-76
2023/10/31 10:38:13;;;;;;;0.77;0.50;;;15.60;91.90;;;;;;5016461;28;20515;-76
2023/10/31 10:40:43;;;;;;;0.90;0.68;;;15.60;91.90;;;;;;5017017;28;20448;-76
2023/10/31 10:43:30;;;;;;;1.17;0.70;;;15.50;91.90;;;;;;5034414;28;20021;-76
2023/10/31 10:45:57;;;;;;;1.25;0.70;;;15.50;91.90;;;;;;5034147;28;20108;-76
2023/10/31 10:48:27;;;;;;;1.35;0.70;;;15.50;91.90;;;;;;5016335;28;20076;-75
2023/10/31 10:51:11;;;;;;;0.77;0.52;;;15.50;92.00;;;;;;5016447;28;20029;-76
2023/10/31 10:53:57;;;;;;;1.08;0.60;;;15.50;92.00;;;;;;5041434;28;20024;-76
2023/10/31 10:56:30;;;;;;;0.90;0.60;;;15.50;92.00;;;;;;5030154;28;20025;-76
2023/10/31 10:59:03;;;;;;;0.73;0.60;;;15.50;92.00;;;;;;5035241;28;20034;-76
2023/10/31 11:01:33;;;;;;;0.90;0.50;;;15.50;92.00;;;;;;5032599;28;20022;-76
2023/10/31 11:03:59;;;;;;;0.75;0.60;;;15.50;92.00;;;;;;5033496;28;20021;-76
2023/10/31 11:06:26;;;;;;;0.68;0.60;;;15.50;92.00;;;;;;5029931;28;20553;-76
2023/10/31 11:08:53;;;;;;;2.50;0.80;;;15.50;92.00;;;;;;5051401;28;20028;-76
2023/10/31 11:11:20;;;;;;;0.77;0.63;;;15.50;92.00;;;;;;5036067;28;20032;-76
2023/10/31 11:13:46;;;;;;;0.98;0.68;;;15.50;92.00;;;;;;5036241;28;20111;-76
2023/10/31 11:16:24;;;;;;;0.70;0.60;;;15.60;92.00;;;;;;5053668;28;20099;-76
2023/10/31 11:18:50;;;;;;;0.70;0.60;;;15.60;92.00;;;;;;5035695;28;20037;-76
2023/10/31 11:21:15;;;;;;;1.05;0.70;;;15.60;91.90;;;;;;5035813;28;20573;-76
2023/10/31 11:23:41;;;;;;;1.33;0.80;;;15.60;91.80;;;;;;5045193;28;20017;-76
2023/10/31 11:26:08;;;;;;;1.20;0.70;;;15.60;91.80;;;;;;5035643;28;20027;-76
2023/10/31 11:28:35;;;;;;;0.70;0.60;;;15.70;91.80;;;;;;5053506;28;20025;-76
2023/10/31 11:31:02;;;;;;;1.40;0.88;;;15.60;91.70;;;;;;5035620;28;20029;-75
2023/10/31 11:33:28;;;;;;;1.05;0.70;;;15.70;91.70;;;;;;5035748;28;20088;-76
2023/10/31 11:36:01;;;;;;;1.45;0.70;;;15.60;91.70;;;;;;5035342;28;20033;-76
2023/10/31 11:38:36;;;;;;;1.20;0.75;;;15.60;91.70;;;;;;5035121;28;20029;-76
2023/10/31 11:41:03;;;;;;;0.68;0.60;;;15.60;91.70;;;;;;5034914;28;20036;-76
2023/10/31 11:43:41;;;;;;;1.05;0.70;;;15.60;91.70;;;;;;5035130;28;20056;-77
2023/10/31 11:46:19;;;;;;;0.80;0.70;;;15.60;91.80;;;;;;5035566;28;20070;-76
2023/10/31 11:48:47;;;;;;;0.88;0.63;;;15.60;91.80;;;;;;5050627;28;20454;-76
2023/10/31 11:51:13;;;;;;;1.58;0.80;;;15.60;91.90;;;;;;5053088;28;20057;-76
2023/10/31 11:53:39;;;;;;;1.30;0.80;;;15.60;91.90;;;;;;5053331;28;20029;-76
2023/10/31 11:56:05;;;;;;;1.23;0.80;;;15.60;91.90;;;;;;5052098;28;20052;-76
2023/10/31 11:58:31;;;;;;;1.10;0.70;;;15.50;91.90;;;;;;5051856;28;20021;-76
2023/10/31 12:01:05;;;;;;;1.60;0.80;;;15.50;91.90;;;;;;5051715;28;20071;-76
2023/10/31 12:03:41;;;;;;;1.77;0.80;;;15.50;91.90;;;;;;5052299;28;20531;-76
2023/10/31 12:06:09;;;;;;;1.08;0.68;;;15.50;91.90;;;;;;5051452;28;20536;-76
2023/10/31 12:08:43;;;;;;;1.25;0.70;;;15.50;91.90;;;;;;5051231;28;20025;-76
2023/10/31 12:11:10;;;;;;;1.70;0.90;;;15.50;91.90;;;;;;5052965;28;20096;-76
2023/10/31 12:13:51;;;;;;;1.42;1.00;;;15.50;92.00;;;;;;5053196;28;20028;-76
2023/10/31 12:16:17;;;;;;;;;;;15.50;92.00;;;;;;5057699;28;20091;-77
2023/10/31 12:18:42;;;;;;;0.80;0.70;;;15.50;92.00;;;;;;5055529;28;20362;-76
2023/10/31 12:21:08;;;;;;;2.53;0.90;;;15.50;92.00;;;;;;5056956;28;20028;-75
2023/10/31 12:23:34;;;;;;;1.02;0.82;;;15.50;92.00;;;;;;5056764;28;20100;-76
2023/10/31 12:25:59;;;;;;;1.73;1.00;;;15.50;92.00;;;;;;5055632;28;20128;-76
2023/10/31 12:28:26;;;;;;;1.33;0.68;;;15.50;92.00;;;;;;5055322;28;20127;-76
2023/10/31 12:30:56;;;;;;;1.10;0.80;;;15.50;92.00;;;;;;5047962;28;20066;-76
2023/10/31 12:33:24;;;;;;;1.40;0.80;;;15.50;92.00;;;;;;5045038;28;20055;-76
2023/10/31 12:35:52;;;;;;;1.50;0.93;;;15.50;92.00;;;;;;5035592;28;20029;-76
2023/10/31 12:38:18;;;;;;;1.08;0.80;;;15.50;92.00;;;;;;5059641;23;20123;-81
2023/10/31 12:40:44;;;;;;;1.55;1.00;;;15.50;91.90;;;;;;5036477;28;20078;-81
2023/10/31 12:43:10;;;;;;;1.20;0.90;;;15.60;91.90;;;;;;5018357;28;20406;-81